Impacts METAR Board
IDs:

KMDW - Chicago/Midway Intl, IL, US

Updated at: 0600 UTC 23 Oct 2018
Potential Impact None Slight Moderate High
Time 22/18Z 22/19Z 22/20Z 22/21Z 22/22Z 22/23Z 23/00Z 23/01Z 23/02Z 23/03Z 23/04Z 23/05Z 23/06Z
Temp57 60 62 63 62 60 57 55 53 54 53 51 47
Dewpt37 37 37 34 35 34 34 34 34 34 34 33 32
Altim30.05 30.04 30.02 30.02 30.02 30.01 30.03 30.04 30.05 30.05 30.07 30.08 30.10
VIS10 10 10 10 10 10 10 10 10 10 10 10 10
CIG250 -- -- -- -- -- -- -- -- -- -- -- --
CoverBKNFEWFEWFEWFEWCLRCLRCLRCLRCLRCLRCLRCLR
FltCatVFRVFRVFRVFRVFRVFRVFRVFRVFRVFRVFRVFRVFR
WX--------------------------
WDir260290250260260230240240250250280280280
WSpd8 13 6 8 7 7 6 8 6 9 9 7 5
WGst-- 18 -- -- -- -- -- -- -- -- -- -- --
Raw hourly METARs
KMDW 221753Z 26008KT 10SM FEW200 BKN250 14/03 A3005 RMK AO2 SLP178 T01390028 10139 20033 58004
KMDW 221853Z 29013G18KT 10SM FEW250 16/03 A3004 RMK AO2 SLP174 T01560028
KMDW 221953Z 25006KT 10SM FEW250 17/03 A3002 RMK AO2 SLP169 T01670028
KMDW 222053Z 26008KT 10SM FEW250 17/01 A3002 RMK AO2 SLP167 T01720011 58010
KMDW 222153Z 26007KT 10SM FEW250 17/02 A3002 RMK AO2 SLP167 T01670017
KMDW 222253Z 23007KT 10SM CLR 16/01 A3001 RMK AO2 SLP167 T01560011
KMDW 222353Z 24006KT 10SM CLR 14/01 A3003 RMK AO2 SLP171 T01390011 10172 20139 53003
KMDW 230053Z 24008KT 10SM CLR 13/01 A3004 RMK AO2 SLP178 T01280011
KMDW 230153Z 25006KT 10SM CLR 12/01 A3005 RMK AO2 SLP179 T01170011
KMDW 230253Z 25009KT 10SM CLR 12/01 A3005 RMK AO2 SLP179 T01220011 51009
KMDW 230353Z 28009KT 10SM CLR 12/01 A3007 RMK AO2 SLP185 T01170011
KMDW 230453Z 28007KT 10SM CLR 11/01 A3008 RMK AO2 SLP188 T01060006
KMDW 230553Z 28005KT 10SM CLR 08/00 A3010 RMK AO2 SLP193 T00830000 10139 20083 401720033 51015



Page loaded:  06:58 UTC  |   11:58 PM Pacific  |   12:58 AM Mountain  |   01:58 AM Central  |   02:58 AM Eastern

 

ADVISORIES

FORECASTS

FORECASTS

OBSERVATIONS

USER TOOLS

ABOUT US